Terminal Aerodrome Forecast
Issued by NWS

Home | Current Version | Previous Version | Text Only | Print | Product List | Glossary On
Versions: 1 2 3 4 5 6 7 8 9 10 11 12 13 14 15 16 17 18
000
FTUS46 KSEW 250500 RRA
TAFBLI
TAF
KBLI 250543Z 2506/2606 01007KT P6SM -RA OVC080
     FM250800 04009KT P6SM -RA OVC030
     FM251300 03009KT P6SM -RA OVC045
     FM252000 03008KT P6SM -RA BKN020 OVC035=

USA.gov is the U.S. government's official web portal to all federal, state and local government web resources and services.